Time;durP1;ratioP1;P1;durP2;ratioP2;P2;SDS_P1;SDS_P2;PMS_P1;PMS_P2;Temp;Humidity;BMP_temperature;BMP_pressure;BME280_temperature;BME280_humidity;BME280_pressure;Samples;Min_cycle;Max_cycle;Signal;HPM_P1;HPM_P2
2020/12/13 00:00:55;;;;;;;28.97;22.93;;;;;;;2.31;100.00;96987.00;4995839;28;20331;-67
2020/12/13 00:03:22;;;;;;;28.07;22.80;;;;;;;2.26;100.00;96997.03;5017214;28;20206;-69
2020/12/13 00:05:49;;;;;;;27.57;22.40;;;;;;;2.42;100.00;96993.88;5021852;28;20235;-67
2020/12/13 00:08:16;;;;;;;29.67;20.67;;;;;;;2.38;100.00;97002.97;4999893;28;20415;-69
2020/12/13 00:10:43;;;;;;;30.10;22.43;;;;;;;2.40;100.00;96997.59;5017704;28;20211;-68
2020/12/13 00:13:11;;;;;;;25.30;21.67;;;;;;;2.39;100.00;97006.41;5004524;28;20311;-68
2020/12/13 00:15:39;;;;;;;26.63;21.17;;;;;;;2.35;100.00;97005.03;4995864;28;20242;-68
2020/12/13 00:18:07;;;;;;;29.63;22.87;;;;;;;2.30;100.00;97008.88;5016704;28;20200;-70
2020/12/13 00:20:34;;;;;;;28.33;21.47;;;;;;;2.33;100.00;97006.94;5023760;28;20310;-70
2020/12/13 00:23:01;;;;;;;29.67;21.50;;;;;;;2.28;100.00;97005.56;4992104;28;20217;-69
2020/12/13 00:25:28;;;;;;;29.50;22.13;;;;;;;2.41;100.00;97018.38;5024693;28;20216;-69
2020/12/13 00:27:55;;;;;;;32.40;21.67;;;;;;;2.47;100.00;97024.88;5005236;28;21071;-68
2020/12/13 00:30:22;;;;;;;28.63;21.87;;;;;;;2.37;100.00;97014.41;4987604;28;20234;-70
2020/12/13 00:32:50;;;;;;;31.13;23.13;;;;;;;2.33;100.00;97020.88;5017949;28;20848;-69
2020/12/13 00:35:18;;;;;;;25.93;21.23;;;;;;;2.32;100.00;97032.28;5026331;28;20208;-70
2020/12/13 00:37:45;;;;;;;29.30;22.23;;;;;;;2.37;100.00;97030.09;5016920;28;20216;-69
2020/12/13 00:40:12;;;;;;;32.03;22.80;;;;;;;2.41;100.00;97036.69;4998477;28;20708;-70
2020/12/13 00:42:39;;;;;;;32.93;23.13;;;;;;;2.52;100.00;97035.75;5016874;28;20226;-69
2020/12/13 00:45:06;;;;;;;29.00;22.63;;;;;;;2.48;100.00;97037.00;4972025;28;20428;-70
2020/12/13 00:47:33;;;;;;;28.40;22.23;;;;;;;2.39;100.00;97038.63;5014332;28;20200;-70
2020/12/13 00:50:00;;;;;;;30.77;23.63;;;;;;;2.39;100.00;97035.16;5019877;28;20258;-69
2020/12/13 00:52:28;;;;;;;33.10;22.30;;;;;;;2.36;100.00;97043.28;5017488;28;20220;-70
2020/12/13 00:54:56;;;;;;;30.80;22.23;;;;;;;2.34;100.00;97042.59;4998283;28;20206;-68
2020/12/13 00:57:25;;;;;;;33.20;23.97;;;;;;;2.27;100.00;97048.38;5026070;28;20222;-70
2020/12/13 00:59:54;;;;;;;29.17;22.47;;;;;;;2.29;100.00;97043.81;4986226;28;20212;-68
2020/12/13 01:02:21;;;;;;;33.27;23.23;;;;;;;2.28;100.00;97057.06;5012005;28;20212;-70
2020/12/13 01:04:49;;;;;;;30.17;22.70;;;;;;;2.34;100.00;97059.13;5022307;28;20211;-68
2020/12/13 01:07:16;;;;;;;34.23;24.53;;;;;;;2.37;100.00;97060.63;5017076;28;20870;-70
2020/12/13 01:09:44;;;;;;;32.60;23.23;;;;;;;2.36;100.00;97059.81;5002201;28;20206;-69
2020/12/13 01:12:11;;;;;;;28.53;21.40;;;;;;;2.31;100.00;97068.06;5017748;28;20548;-70
2020/12/13 01:14:39;;;;;;;30.43;23.73;;;;;;;2.34;100.00;97058.28;5004491;28;20416;-69
2020/12/13 01:17:07;;;;;;;34.43;23.97;;;;;;;2.32;100.00;97068.91;4992171;28;20227;-70
2020/12/13 01:19:34;;;;;;;36.50;23.60;;;;;;;2.43;100.00;97076.59;5012891;28;20303;-69
2020/12/13 01:22:02;;;;;;;31.77;23.00;;;;;;;2.51;100.00;97081.16;5017177;28;20205;-70
2020/12/13 01:24:29;;;;;;;34.33;24.47;;;;;;;2.51;100.00;97080.34;4995497;28;20239;-68
2020/12/13 01:26:57;;;;;;;31.20;22.47;;;;;;;2.46;100.00;97085.97;5019559;28;20235;-70
2020/12/13 01:29:24;;;;;;;34.50;23.90;;;;;;;2.42;100.00;97081.97;5010030;28;20627;-69
2020/12/13 01:31:51;;;;;;;33.23;23.40;;;;;;;2.31;100.00;97083.75;4985162;28;20240;-69
2020/12/13 01:34:19;;;;;;;33.40;23.83;;;;;;;2.40;100.00;97095.19;5011069;28;20566;-69
2020/12/13 01:36:46;;;;;;;31.03;22.70;;;;;;;2.27;100.00;97095.44;5011808;28;20315;-70
2020/12/13 01:39:13;;;;;;;30.37;22.83;;;;;;;2.29;100.00;97100.53;5023670;28;20678;-70
2020/12/13 01:41:40;;;;;;;34.10;24.63;;;;;;;2.28;100.00;97104.13;4999173;28;20512;-69
2020/12/13 01:44:08;;;;;;;32.50;22.93;;;;;;;2.46;100.00;97104.25;5020420;28;20203;-70
2020/12/13 01:46:38;;;;;;;39.30;26.80;;;;;;;2.34;100.00;97105.34;4985947;28;21886;-70
2020/12/13 01:49:07;;;;;;;34.87;25.27;;;;;;;2.38;100.00;97109.34;5018847;28;20291;-70
2020/12/13 01:51:44;;;;;;;46.23;30.87;;;;;;;2.40;100.00;97105.66;5012319;28;20228;-69
2020/12/13 01:54:13;;;;;;;40.20;28.80;;;;;;;2.40;100.00;97108.25;5016735;28;20669;-70
2020/12/13 01:56:42;;;;;;;31.57;23.23;;;;;;;2.39;100.00;97113.63;4977368;28;20256;-71
2020/12/13 01:59:12;;;;;;;33.30;23.37;;;;;;;2.34;100.00;97108.81;5013395;28;20226;-70
2020/12/13 02:01:40;;;;;;;34.90;23.33;;;;;;;2.47;100.00;97113.78;5009357;28;20596;-69
2020/12/13 02:04:08;;;;;;;34.00;23.17;;;;;;;2.54;100.00;97114.91;4990494;28;20220;-70
2020/12/13 02:06:38;;;;;;;30.80;22.53;;;;;;;2.59;100.00;97117.09;5011137;28;20220;-70
2020/12/13 02:09:05;;;;;;;30.90;22.23;;;;;;;2.56;100.00;97119.97;5016586;28;20199;-70
2020/12/13 02:11:33;;;;;;;32.30;23.03;;;;;;;2.46;100.00;97123.41;4994012;28;20236;-68
2020/12/13 02:14:00;;;;;;;29.60;21.27;;;;;;;2.44;100.00;97122.72;5022847;28;20225;-70
2020/12/13 02:16:29;;;;;;;33.83;22.40;;;;;;;2.45;100.00;97123.53;5013983;28;20444;-69
2020/12/13 02:18:56;;;;;;;36.33;24.10;;;;;;;2.51;100.00;97124.78;4987238;28;20584;-70
2020/12/13 02:21:23;;;;;;;34.07;23.80;;;;;;;2.40;100.00;97131.81;5012601;28;20204;-68
2020/12/13 02:23:53;;;;;;;31.67;22.87;;;;;;;2.40;100.00;97128.34;5014282;28;20889;-70
2020/12/13 02:26:20;;;;;;;35.33;24.53;;;;;;;2.42;100.00;97127.25;4994938;28;20231;-69
2020/12/13 02:28:47;;;;;;;34.83;24.60;;;;;;;2.45;100.00;97134.00;5023270;28;20399;-71
2020/12/13 02:31:14;;;;;;;33.67;23.90;;;;;;;2.43;100.00;97141.16;5006505;28;20208;-68
2020/12/13 02:33:42;;;;;;;32.73;24.10;;;;;;;2.35;100.00;97141.84;4996151;28;20210;-70
2020/12/13 02:36:09;;;;;;;39.30;24.63;;;;;;;2.37;100.00;97141.69;5013175;28;20242;-69
2020/12/13 02:38:36;;;;;;;34.03;23.77;;;;;;;2.44;100.00;97146.25;5016030;28;20643;-70
2020/12/13 02:41:04;;;;;;;36.33;24.23;;;;;;;2.46;100.00;97140.88;5019652;28;20299;-69
2020/12/13 02:43:31;;;;;;;38.10;23.87;;;;;;;2.56;100.00;97148.75;4987059;28;20788;-71
2020/12/13 02:45:58;;;;;;;34.63;23.10;;;;;;;2.46;100.00;97146.94;5014724;28;20759;-69
2020/12/13 02:48:25;;;;;;;35.70;23.70;;;;;;;2.50;100.00;97146.69;5024485;28;20218;-71
2020/12/13 02:50:53;;;;;;;37.87;23.47;;;;;;;2.54;100.00;97148.06;4984340;28;20252;-68
2020/12/13 02:53:20;;;;;;;33.77;24.00;;;;;;;2.60;100.00;97152.75;5020309;28;20231;-68
2020/12/13 02:55:47;;;;;;;39.13;24.67;;;;;;;2.58;100.00;97149.44;5021577;28;20310;-70
2020/12/13 02:58:16;;;;;;;39.47;24.87;;;;;;;2.43;100.00;97154.22;5001530;28;20588;-69
2020/12/13 03:00:43;;;;;;;37.50;25.47;;;;;;;2.43;100.00;97162.91;5019144;28;20303;-70
2020/12/13 03:03:10;;;;;;;35.10;23.93;;;;;;;2.42;100.00;97152.56;5014065;28;20204;-71
2020/12/13 03:05:37;;;;;;;35.10;24.30;;;;;;;2.50;100.00;97163.22;4985959;28;20440;-70
2020/12/13 03:08:04;;;;;;;35.57;23.57;;;;;;;2.49;100.00;97156.34;5025517;28;20302;-70
2020/12/13 03:10:31;;;;;;;34.97;24.50;;;;;;;2.45;100.00;97158.38;5016016;28;20391;-70
2020/12/13 03:12:59;;;;;;;39.87;25.17;;;;;;;2.42;100.00;97161.25;4997526;28;20235;-70
2020/12/13 03:15:26;;;;;;;35.67;25.53;;;;;;;2.57;100.00;97169.56;5022912;28;20298;-68
2020/12/13 03:17:54;;;;;;;33.67;24.00;;;;;;;2.55;100.00;97165.41;5024651;28;20255;-71
2020/12/13 03:20:21;;;;;;;33.67;22.97;;;;;;;2.47;100.00;97168.72;5011589;28;20735;-69
2020/12/13 03:22:49;;;;;;;39.53;24.80;;;;;;;2.54;100.00;97171.59;5007970;28;20234;-70
2020/12/13 03:25:16;;;;;;;35.57;22.80;;;;;;;2.51;100.00;97169.25;5017518;28;20200;-69
2020/12/13 03:27:43;;;;;;;40.30;26.17;;;;;;;2.55;100.00;97178.50;5013914;28;20432;-70
2020/12/13 03:30:11;;;;;;;36.30;23.80;;;;;;;2.54;100.00;97182.06;4995143;28;20303;-71
2020/12/13 03:32:39;;;;;;;32.27;23.93;;;;;;;2.59;100.00;97183.34;5025236;28;20856;-70
2020/12/13 03:35:06;;;;;;;33.87;24.73;;;;;;;2.55;100.00;97178.50;5018757;28;20607;-71
2020/12/13 03:37:33;;;;;;;33.63;21.83;;;;;;;2.71;100.00;97185.84;4983925;28;21134;-70
2020/12/13 03:40:00;;;;;;;36.00;23.97;;;;;;;2.60;100.00;97192.00;5018721;28;20755;-71
2020/12/13 03:42:27;;;;;;;34.70;23.20;;;;;;;2.50;100.00;97185.91;5022896;28;20673;-69
2020/12/13 03:44:54;;;;;;;32.23;23.33;;;;;;;2.48;100.00;97188.69;5001289;28;20866;-70
2020/12/13 03:47:21;;;;;;;41.03;25.03;;;;;;;2.44;100.00;97185.50;5023364;28;20231;-69
2020/12/13 03:49:50;;;;;;;39.47;23.23;;;;;;;2.44;100.00;97189.88;5012239;28;20204;-70
2020/12/13 03:52:17;;;;;;;36.47;24.97;;;;;;;2.42;100.00;97192.63;4995223;28;20686;-69
2020/12/13 03:54:44;;;;;;;34.23;23.47;;;;;;;2.46;100.00;97196.66;5018397;28;20262;-71
2020/12/13 03:57:12;;;;;;;36.57;23.20;;;;;;;2.41;100.00;97193.59;5019494;28;20778;-70
2020/12/13 03:59:39;;;;;;;37.53;24.10;;;;;;;2.45;100.00;97195.00;4999160;28;20306;-69
2020/12/13 04:02:06;;;;;;;35.73;23.17;;;;;;;2.61;100.00;97198.88;5027032;28;20289;-70
2020/12/13 04:04:33;;;;;;;30.23;22.17;;;;;;;2.65;100.00;97210.75;5018539;28;20619;-70
2020/12/13 04:07:01;;;;;;;33.77;23.23;;;;;;;2.59;100.00;97212.09;5025482;28;20227;-71
2020/12/13 04:09:28;;;;;;;38.47;24.60;;;;;;;2.64;100.00;97203.03;4993824;28;20224;-69
2020/12/13 04:11:55;;;;;;;32.17;22.50;;;;;;;2.78;100.00;97213.09;5024204;28;20603;-70
2020/12/13 04:14:22;;;;;;;32.67;22.53;;;;;;;2.81;100.00;97218.06;5010033;28;20295;-69
2020/12/13 04:16:50;;;;;;;36.77;23.07;;;;;;;2.72;100.00;97216.25;5015425;28;20356;-70
2020/12/13 04:19:17;;;;;;;28.27;20.53;;;;;;;2.63;100.00;97220.50;5018983;28;20616;-69
2020/12/13 04:21:44;;;;;;;29.90;21.13;;;;;;;2.72;100.00;97217.09;5023470;28;20208;-71
2020/12/13 04:24:12;;;;;;;32.37;22.17;;;;;;;2.67;100.00;97221.91;4991497;28;20224;-69
2020/12/13 04:26:39;;;;;;;30.53;22.77;;;;;;;2.66;100.00;97227.28;5015343;28;20227;-69
2020/12/13 04:29:06;;;;;;;29.07;22.50;;;;;;;2.72;100.00;97230.19;5026685;28;20233;-70
2020/12/13 04:31:33;;;;;;;31.83;22.80;;;;;;;2.66;100.00;97238.56;4997582;28;20815;-70
2020/12/13 04:34:01;;;;;;;31.30;22.43;;;;;;;2.65;100.00;97244.78;5020023;28;20787;-71
2020/12/13 04:36:28;;;;;;;31.97;20.77;;;;;;;2.59;100.00;97247.88;5018324;28;20223;-68
2020/12/13 04:38:55;;;;;;;32.30;21.57;;;;;;;2.65;100.00;97257.84;4988382;28;20360;-71
2020/12/13 04:41:23;;;;;;;30.67;22.47;;;;;;;2.71;100.00;97252.09;5014226;28;20201;-69
2020/12/13 04:43:50;;;;;;;29.20;21.40;;;;;;;2.73;100.00;97251.94;5022417;28;20324;-71
2020/12/13 04:46:17;;;;;;;32.10;21.23;;;;;;;2.68;100.00;97261.97;4995260;28;20593;-69
2020/12/13 04:48:46;;;;;;;31.67;21.07;;;;;;;2.78;100.00;97268.06;5024217;28;20455;-70
2020/12/13 04:51:18;;;;;;;25.33;20.27;;;;;;;2.71;100.00;97266.94;5024480;28;20772;-69
2020/12/13 04:53:50;;;;;;;28.30;20.63;;;;;;;2.79;100.00;97269.72;4988145;28;20322;-70
2020/12/13 04:56:19;;;;;;;28.97;20.70;;;;;;;2.74;100.00;97258.81;5013426;28;20228;-69
2020/12/13 04:58:48;;;;;;;31.10;21.87;;;;;;;2.65;100.00;97270.09;5018909;28;20398;-70
2020/12/13 05:01:15;;;;;;;27.10;19.80;;;;;;;2.58;100.00;97262.78;5016314;28;20204;-69
2020/12/13 05:03:42;;;;;;;26.67;19.70;;;;;;;2.67;100.00;97269.00;5005651;28;20481;-70
2020/12/13 05:06:09;;;;;;;28.93;21.63;;;;;;;2.66;100.00;97275.19;5016663;28;20301;-70
2020/12/13 05:08:37;;;;;;;26.07;20.77;;;;;;;2.68;100.00;97273.28;4992553;28;21730;-71
2020/12/13 05:11:04;;;;;;;30.43;20.40;;;;;;;2.81;100.00;97272.22;5017932;28;20663;-70
2020/12/13 05:13:31;;;;;;;31.20;20.70;;;;;;;2.70;100.00;97270.53;5019523;28;20330;-68
2020/12/13 05:15:59;;;;;;;27.67;21.10;;;;;;;2.70;100.00;97270.53;5025741;28;20224;-70
2020/12/13 05:18:26;;;;;;;30.30;21.10;;;;;;;2.73;100.00;97271.09;5004403;28;20207;-68
2020/12/13 05:20:53;;;;;;;25.50;20.43;;;;;;;2.88;100.00;97284.66;5020776;28;20196;-70
2020/12/13 05:23:22;;;;;;;26.13;19.90;;;;;;;2.80;100.00;97284.47;5012008;28;20295;-69
2020/12/13 05:25:52;;;;;;;24.37;19.27;;;;;;;2.83;100.00;97292.03;4985997;28;20448;-70
2020/12/13 05:28:23;;;;;;;27.70;19.27;;;;;;;2.80;100.00;97289.69;5020824;28;20196;-68
2020/12/13 05:30:51;;;;;;;24.17;18.47;;;;;;;2.87;100.00;97298.69;5009807;28;20212;-68
2020/12/13 05:33:27;;;;;;;23.60;17.93;;;;;;;2.86;100.00;97299.66;4988813;28;20959;-69
2020/12/13 05:36:04;;;;;;;26.57;19.63;;;;;;;2.91;100.00;97306.28;5014401;28;20238;-68
2020/12/13 05:38:33;;;;;;;24.80;19.00;;;;;;;3.04;100.00;97301.63;5020359;28;20233;-71
2020/12/13 05:41:00;;;;;;;26.00;18.80;;;;;;;3.11;100.00;97294.06;4985598;28;20216;-73
2020/12/13 05:43:30;;;;;;;28.70;19.27;;;;;;;3.04;100.00;97301.63;5012552;28;20299;-71
2020/12/13 05:48:44;;;;;;;24.20;18.33;;;;;;;2.85;100.00;97299.78;4985069;28;20479;-68
2020/12/13 05:54:11;;;;;;;23.03;17.83;;;;;;;3.01;100.00;97300.09;4948566;28;20317;-70
2020/12/13 05:56:39;;;;;;;25.03;18.43;;;;;;;3.10;100.00;97298.47;4967150;28;20693;-68
2020/12/13 05:59:06;;;;;;;25.33;18.93;;;;;;;3.09;100.00;97304.66;5012034;28;20576;-68
2020/12/13 06:01:36;;;;;;;24.50;17.90;;;;;;;3.03;100.00;97307.81;5018906;28;20247;-68
2020/12/13 06:04:09;;;;;;;25.07;18.43;;;;;;;2.98;100.00;97310.81;4995189;28;20212;-70
2020/12/13 06:06:42;;;;;;;25.87;17.97;;;;;;;3.02;100.00;97311.41;5014680;28;20889;-68
2020/12/13 06:09:09;;;;;;;25.00;18.80;;;;;;;2.92;100.00;97307.94;5009552;28;20215;-69
2020/12/13 06:11:40;;;;;;;23.67;18.10;;;;;;;2.93;100.00;97307.78;4985155;28;20216;-67
2020/12/13 06:14:09;;;;;;;23.40;17.57;;;;;;;2.88;100.00;97308.19;5014534;28;20722;-68
2020/12/13 06:16:37;;;;;;;21.97;18.00;;;;;;;2.90;100.00;97315.91;5014613;28;20873;-68
2020/12/13 06:19:07;;;;;;;24.27;18.07;;;;;;;2.87;100.00;97318.78;5001010;28;20266;-70
2020/12/13 06:21:34;;;;;;;23.30;17.63;;;;;;;2.88;100.00;97328.28;5005877;28;20214;-68
2020/12/13 06:24:02;;;;;;;24.93;19.43;;;;;;;2.81;100.00;97335.03;5012220;28;20813;-70
2020/12/13 06:26:30;;;;;;;26.20;18.57;;;;;;;2.77;100.00;97337.06;5028895;28;20602;-67
2020/12/13 06:28:57;;;;;;;28.20;19.30;;;;;;;2.78;100.00;97340.53;5024675;28;20686;-68
2020/12/13 06:31:24;;;;;;;24.80;19.47;;;;;;;2.91;100.00;97348.16;5021360;28;20215;-66
2020/12/13 06:33:53;;;;;;;24.73;19.00;;;;;;;2.91;100.00;97348.97;5035917;28;20219;-67
2020/12/13 06:36:23;;;;;;;24.43;18.47;;;;;;;2.89;100.00;97345.66;5018858;28;20258;-66
2020/12/13 06:38:56;;;;;;;22.87;17.03;;;;;;;2.90;100.00;97352.53;5032980;28;20218;-68
2020/12/13 06:41:25;;;;;;;25.17;19.07;;;;;;;3.02;100.00;97353.28;5006955;28;20282;-67
2020/12/13 06:44:00;;;;;;;23.93;17.90;;;;;;;3.03;100.00;97354.94;4993823;28;20971;-67
2020/12/13 06:46:28;;;;;;;25.07;18.87;;;;;;;3.12;100.00;97358.56;5003258;28;20513;-67
2020/12/13 06:48:55;;;;;;;24.17;18.03;;;;;;;3.02;100.00;97358.53;5018471;28;20212;-69
2020/12/13 06:51:31;;;;;;;24.43;17.80;;;;;;;2.98;100.00;97360.56;4990314;28;20212;-68
2020/12/13 06:53:59;;;;;;;26.53;18.40;;;;;;;3.04;100.00;97367.91;5014354;28;20684;-69
2020/12/13 06:56:27;;;;;;;27.80;20.20;;;;;;;3.02;100.00;97367.19;5022062;28;20249;-70
2020/12/13 06:58:56;;;;;;;29.07;21.07;;;;;;;3.06;100.00;97370.38;4993515;28;20223;-69
2020/12/13 07:01:25;;;;;;;27.40;19.83;;;;;;;3.08;100.00;97378.13;4997714;28;20609;-70
2020/12/13 07:03:53;;;;;;;21.83;18.13;;;;;;;3.08;100.00;97383.34;5016633;28;20208;-70
2020/12/13 07:06:23;;;;;;;21.63;17.57;;;;;;;3.08;100.00;97381.56;4990544;28;20232;-68
2020/12/13 07:08:54;;;;;;;21.60;16.70;;;;;;;3.06;100.00;97382.66;5014272;28;20212;-69
2020/12/13 07:11:24;;;;;;;22.43;17.30;;;;;;;3.06;100.00;97382.66;5018909;28;20218;-69
2020/12/13 07:13:52;;;;;;;23.53;16.20;;;;;;;3.04;100.00;97383.63;4991063;28;20235;-69
2020/12/13 07:16:33;;;;;;;23.37;18.70;;;;;;;3.11;100.00;97389.16;5000796;28;22873;-70
2020/12/13 07:19:06;;;;;;;25.13;18.83;;;;;;;3.16;100.00;97391.38;5020346;28;20723;-69
2020/12/13 07:21:35;;;;;;;33.17;23.87;;;;;;;3.15;100.00;97394.97;5015022;28;20235;-70
2020/12/13 07:24:03;;;;;;;25.13;17.23;;;;;;;3.13;100.00;97389.84;4992575;28;20726;-68
2020/12/13 07:26:32;;;;;;;22.17;17.23;;;;;;;3.09;100.00;97396.31;4998185;28;20476;-70
2020/12/13 07:29:01;;;;;;;19.00;16.83;;;;;;;3.15;100.00;97400.19;4996818;28;20270;-69
2020/12/13 07:31:35;;;;;;;20.90;16.87;;;;;;;3.22;100.00;97410.94;4982029;28;20737;-70
2020/12/13 07:34:04;;;;;;;18.10;16.03;;;;;;;3.20;100.00;97408.47;5004988;28;20325;-69
2020/12/13 07:36:31;;;;;;;19.90;16.40;;;;;;;3.25;100.00;97414.16;5012311;28;20418;-71
2020/12/13 07:38:58;;;;;;;19.53;15.60;;;;;;;3.23;100.00;97418.69;4994658;28;20219;-69
2020/12/13 07:41:27;;;;;;;21.37;16.90;;;;;;;3.21;100.00;97417.16;5022580;28;20715;-69
2020/12/13 07:43:55;;;;;;;19.40;16.03;;;;;;;3.29;100.00;97412.91;5012352;28;20236;-69
2020/12/13 07:46:23;;;;;;;19.70;17.07;;;;;;;3.25;100.00;97423.81;4978330;28;20390;-70
2020/12/13 07:49:08;;;;;;;24.73;18.30;;;;;;;3.31;100.00;97424.09;5015122;28;20216;-70
2020/12/13 07:51:38;;;;;;;21.93;17.37;;;;;;;3.41;100.00;97426.75;5018266;28;20200;-70
2020/12/13 07:54:09;;;;;;;20.97;18.70;;;;;;;3.44;100.00;97429.09;5003840;28;20228;-68
2020/12/13 07:56:37;;;;;;;23.20;20.20;;;;;;;3.52;100.00;97427.59;5009780;28;20717;-70
2020/12/13 07:59:09;;;;;;;28.17;25.27;;;;;;;3.40;100.00;97429.50;5020665;28;20201;-69
2020/12/13 08:01:36;;;;;;;26.57;23.70;;;;;;;3.41;100.00;97434.63;4991213;28;20529;-70
2020/12/13 08:04:04;;;;;;;23.07;19.90;;;;;;;3.45;100.00;97433.38;4998748;28;20283;-69
2020/12/13 08:06:31;;;;;;;23.17;19.40;;;;;;;3.47;100.00;97438.50;5016464;28;20318;-70
2020/12/13 08:08:58;;;;;;;26.20;20.80;;;;;;;3.43;100.00;97448.41;5015184;28;20208;-69
2020/12/13 08:11:26;;;;;;;27.37;20.97;;;;;;;3.45;100.00;97441.25;4996201;28;20219;-71
2020/12/13 08:13:55;;;;;;;20.87;17.17;;;;;;;3.64;100.00;97447.53;5016002;28;20731;-70
2020/12/13 08:16:26;;;;;;;23.00;17.27;;;;;;;3.59;100.00;97453.16;4991936;28;21156;-71
2020/12/13 08:18:54;;;;;;;22.73;17.83;;;;;;;3.62;100.00;97455.50;4999501;28;20293;-70
2020/12/13 08:21:29;;;;;;;21.90;17.63;;;;;;;3.55;100.00;97454.38;5011452;28;20303;-71
2020/12/13 08:23:58;;;;;;;22.10;18.07;;;;;;;3.52;100.00;97465.13;5013345;28;20656;-69
2020/12/13 08:26:26;;;;;;;19.23;17.17;;;;;;;3.58;100.00;97471.59;4996088;28;22054;-70
2020/12/13 08:28:54;;;;;;;28.03;20.70;;;;;;;3.65;100.00;97470.13;5015387;28;20202;-69
2020/12/13 08:31:24;;;;;;;28.87;23.40;;;;;;;3.64;100.00;97481.59;5019460;28;20203;-70
2020/12/13 08:34:02;;;;;;;23.77;19.20;;;;;;;3.55;100.00;97490.22;4988545;28;20231;-70
2020/12/13 08:36:30;;;;;;;23.20;18.40;;;;;;;3.63;100.00;97482.53;5009464;28;20511;-70
2020/12/13 08:39:06;;;;;;;23.70;18.50;;;;;;;3.58;100.00;97487.31;5017867;28;20215;-68
2020/12/13 08:41:33;;;;;;;21.20;17.10;;;;;;;3.62;100.00;97494.81;4991690;28;20214;-70
2020/12/13 08:44:01;;;;;;;19.57;16.13;;;;;;;3.65;100.00;97498.13;5016773;28;20216;-68
2020/12/13 08:46:41;;;;;;;19.87;17.17;;;;;;;3.64;100.00;97505.16;5016140;28;20219;-69
2020/12/13 08:49:09;;;;;;;25.07;20.40;;;;;;;3.74;100.00;97492.06;4986853;28;20598;-69
2020/12/13 08:51:36;;;;;;;19.67;17.10;;;;;;;3.72;100.00;97496.63;5000365;28;20232;-69
2020/12/13 08:54:05;;;;;;;22.80;17.87;;;;;;;3.71;100.00;97498.44;5012947;28;20715;-69
2020/12/13 08:56:37;;;;;;;21.03;17.50;;;;;;;3.80;100.00;97503.84;4995021;28;20746;-71
2020/12/13 08:59:07;;;;;;;21.60;17.37;;;;;;;3.77;100.00;97510.16;5014536;28;20294;-68
2020/12/13 09:01:37;;;;;;;20.70;16.70;;;;;;;3.79;100.00;97512.66;5019266;28;20305;-71
2020/12/13 09:04:20;;;;;;;21.23;17.90;;;;;;;3.79;100.00;97510.88;4985804;28;20270;-68
2020/12/13 09:06:55;;;;;;;22.53;17.53;;;;;;;3.81;100.00;97516.81;5004844;28;20232;-72
2020/12/13 09:09:23;;;;;;;23.27;17.50;;;;;;;3.77;100.00;97528.50;5011468;28;20208;-70
2020/12/13 09:11:50;;;;;;;20.37;17.27;;;;;;;3.85;100.00;97533.94;4995892;28;20652;-73
2020/12/13 09:14:34;;;;;;;21.50;16.33;;;;;;;3.94;100.00;97526.22;5002740;28;20253;-72
2020/12/13 09:17:02;;;;;;;21.37;17.13;;;;;;;4.01;100.00;97524.72;5017953;28;20251;-72
2020/12/13 09:19:29;;;;;;;22.33;17.50;;;;;;;4.20;100.00;97532.66;4979863;28;20580;-68
2020/12/13 09:21:58;;;;;;;20.33;18.20;;;;;;;4.27;100.00;97537.34;5000539;28;20207;-72
2020/12/13 09:24:28;;;;;;;20.27;17.63;;;;;;;4.20;100.00;97537.06;4995766;28;20577;-72
2020/12/13 09:27:04;;;;;;;23.43;18.40;;;;;;;4.19;100.00;97541.50;4992478;28;20555;-68
2020/12/13 09:29:33;;;;;;;25.37;17.47;;;;;;;4.22;100.00;97535.13;5015148;28;20215;-71
2020/12/13 09:32:01;;;;;;;19.97;17.43;;;;;;;4.30;100.00;97537.91;5005101;28;20286;-70
2020/12/13 09:34:28;;;;;;;18.77;15.57;;;;;;;4.38;100.00;97539.84;4985535;28;20232;-70
2020/12/13 09:36:56;;;;;;;21.87;15.80;;;;;;;4.44;100.00;97541.13;4995730;28;20227;-69
2020/12/13 09:39:30;;;;;;;21.83;16.37;;;;;;;4.57;100.00;97540.84;5014614;28;20202;-71
2020/12/13 09:41:58;;;;;;;21.47;15.70;;;;;;;4.62;100.00;97539.47;4998676;28;20313;-69
2020/12/13 09:44:26;;;;;;;17.50;14.87;;;;;;;4.54;100.00;97541.09;5016997;28;20684;-71
2020/12/13 09:46:57;;;;;;;19.80;15.63;;;;;;;4.74;100.00;97540.16;5008640;28;20251;-68
2020/12/13 09:49:25;;;;;;;18.13;15.33;;;;;;;4.69;100.00;97536.28;5018739;28;20211;-70
2020/12/13 09:51:56;;;;;;;19.17;16.00;;;;;;;4.77;100.00;97545.13;4977157;28;20212;-68
2020/12/13 09:54:24;;;;;;;21.20;17.03;;;;;;;4.61;100.00;97539.63;5019167;28;20727;-71
2020/12/13 09:56:52;;;;;;;20.90;16.40;;;;;;;4.68;100.00;97539.88;5015603;28;20668;-70
2020/12/13 09:59:19;;;;;;;20.93;17.17;;;;;;;4.83;100.00;97542.91;4996726;28;20420;-72
2020/12/13 10:01:47;;;;;;;19.63;16.67;;;;;;;4.78;100.00;97545.97;5003140;28;20240;-70
2020/12/13 10:04:16;;;;;;;21.70;18.23;;;;;;;4.71;100.00;97545.69;5015342;28;20223;-70
2020/12/13 10:09:20;;;;;;;24.43;18.97;;;;;;;4.73;100.00;97543.75;5019147;28;20343;-71
2020/12/13 10:11:47;;;;;;;24.00;18.57;;;;;;;4.85;100.00;97548.84;5022780;28;20212;-69
2020/12/13 10:14:15;;;;;;;25.43;20.77;;;;;;;4.96;100.00;97545.25;4991822;28;20386;-71
2020/12/13 10:16:43;;;;;;;22.63;18.70;;;;;;;4.96;100.00;97542.63;5004454;28;20281;-71
2020/12/13 10:19:11;;;;;;;27.93;20.13;;;;;;;4.93;100.00;97547.19;5011502;28;20339;-71
2020/12/13 10:21:39;;;;;;;25.97;20.30;;;;;;;4.97;100.00;97558.25;4989295;28;20239;-70
2020/12/13 10:24:07;;;;;;;26.03;20.90;;;;;;;4.88;100.00;97548.56;5000864;28;20432;-70
2020/12/13 10:26:37;;;;;;;19.77;17.53;;;;;;;5.04;100.00;97548.00;5018757;28;20686;-71
2020/12/13 10:29:05;;;;;;;21.37;16.93;;;;;;;5.01;100.00;97553.53;5013485;28;21139;-71
2020/12/13 10:31:33;;;;;;;22.57;17.97;;;;;;;5.10;100.00;97554.50;4999090;28;20211;-71
2020/12/13 10:34:01;;;;;;;23.13;16.77;;;;;;;5.22;100.00;97556.84;5004373;28;20443;-71
2020/12/13 10:36:28;;;;;;;22.70;17.27;;;;;;;5.12;100.00;97549.94;4990234;28;20247;-71
2020/12/13 10:38:56;;;;;;;19.27;16.70;;;;;;;5.47;100.00;97554.56;5001593;28;20216;-69
2020/12/13 10:41:23;;;;;;;20.27;17.57;;;;;;;5.44;100.00;97552.22;5015079;28;20212;-71
2020/12/13 10:43:51;;;;;;;20.60;15.33;;;;;;;5.36;100.00;97552.13;5016653;28;20218;-70
2020/12/13 10:46:18;;;;;;;19.20;15.93;;;;;;;5.45;100.00;97553.88;4999397;28;20231;-68
2020/12/13 10:48:46;;;;;;;21.33;16.57;;;;;;;5.46;100.00;97547.66;5005069;28;20208;-70
2020/12/13 10:51:15;;;;;;;18.93;15.80;;;;;;;5.54;100.00;97552.22;5017687;28;20192;-71
2020/12/13 10:53:42;;;;;;;23.67;17.37;;;;;;;5.65;100.00;97548.59;4966966;28;20232;-71
2020/12/13 10:56:11;;;;;;;22.90;18.83;;;;;;;5.74;100.00;97545.09;5002055;28;20235;-71
2020/12/13 10:58:39;;;;;;;22.53;16.93;;;;;;;6.11;100.00;97546.06;4999348;28;20208;-72
2020/12/13 11:01:08;;;;;;;16.50;14.70;;;;;;;6.13;100.00;97551.19;5012134;28;20747;-70
2020/12/13 11:03:36;;;;;;;16.43;14.73;;;;;;;6.40;100.00;97546.88;4989170;28;21049;-72
2020/12/13 11:06:03;;;;;;;15.63;13.53;;;;;;;6.33;100.00;97547.47;5018848;28;20219;-70
2020/12/13 11:08:30;;;;;;;16.13;13.73;;;;;;;6.53;100.00;97549.16;4978306;28;21002;-71
2020/12/13 11:10:57;;;;;;;14.63;12.97;;;;;;;6.45;100.00;97550.72;5003984;28;20208;-72
2020/12/13 11:13:27;;;;;;;15.13;13.07;;;;;;;6.45;100.00;97547.25;5012970;28;20541;-71
2020/12/13 11:15:54;;;;;;;14.67;13.20;;;;;;;6.35;100.00;97555.19;5001390;28;20231;-71
2020/12/13 11:18:21;;;;;;;17.23;13.80;;;;;;;6.33;100.00;97554.53;4966092;28;20515;-72
2020/12/13 11:20:48;;;;;;;19.53;17.60;;;;;;;6.34;100.00;97557.03;5004871;28;20204;-72
2020/12/13 11:23:16;;;;;;;17.30;15.50;;;;;;;6.30;100.00;97552.19;4988946;28;20204;-71
2020/12/13 11:25:44;;;;;;;15.43;13.63;;;;;;;6.33;100.00;97560.63;4999517;28;20236;-71
2020/12/13 11:28:11;;;;;;;14.87;13.37;;;;;;;6.46;100.00;97557.66;4998715;28;20218;-70
2020/12/13 11:30:39;;;;;;;15.30;13.73;;;;;;;6.21;100.00;97560.00;5014830;28;20315;-71